Time;durP1;ratioP1;P1;durP2;ratioP2;P2;SDS_P1;SDS_P2;PMS_P1;PMS_P2;Temp;Humidity;BMP_temperature;BMP_pressure;BME280_temperature;BME280_humidity;BME280_pressure;Samples;Min_cycle;Max_cycle;Signal;HPM_P1;HPM_P2
2021/04/04 00:00:20;;;;;;;22.27;5.73;;;5.10;99.90;;;;;;5063652;28;20211;-62
2021/04/04 00:02:51;;;;;;;24.07;6.20;;;5.10;99.90;;;;;;5070512;28;20192;-62
2021/04/04 00:05:22;;;;;;;33.17;6.57;;;5.20;99.90;;;;;;5073627;28;20223;-62
2021/04/04 00:07:49;;;;;;;30.43;6.03;;;5.20;99.90;;;;;;5060249;28;20188;-62
2021/04/04 00:10:18;;;;;;;23.33;6.10;;;5.20;99.90;;;;;;5071374;28;20188;-61
2021/04/04 00:12:46;;;;;;;22.60;6.07;;;5.20;99.90;;;;;;5062096;28;20257;-62
2021/04/04 00:15:15;;;;;;;27.73;6.43;;;5.20;99.90;;;;;;5072036;28;20314;-62
2021/04/04 00:17:43;;;;;;;21.20;6.00;;;5.20;99.90;;;;;;5078986;28;20695;-62
2021/04/04 00:20:13;;;;;;;29.07;6.37;;;5.20;99.90;;;;;;5079509;28;20245;-62
2021/04/04 00:22:40;;;;;;;24.23;6.00;;;5.30;99.90;;;;;;5073779;28;20227;-62
2021/04/04 00:25:12;;;;;;;23.17;5.77;;;5.30;99.90;;;;;;5080559;28;20646;-62
2021/04/04 00:27:40;;;;;;;21.30;6.33;;;5.30;99.90;;;;;;5071969;28;20250;-62
2021/04/04 00:30:09;;;;;;;15.63;5.47;;;5.30;99.90;;;;;;5069546;28;20214;-62
2021/04/04 00:32:37;;;;;;;21.07;6.47;;;5.30;99.90;;;;;;5062653;28;20961;-62
2021/04/04 00:35:08;;;;;;;18.83;6.00;;;5.30;99.90;;;;;;5064197;28;20290;-62
2021/04/04 00:37:37;;;;;;;25.47;6.33;;;5.20;99.90;;;;;;5069537;28;20304;-62
2021/04/04 00:40:09;;;;;;;20.90;6.87;;;5.20;99.90;;;;;;5072538;28;20652;-62
2021/04/04 00:42:37;;;;;;;22.90;6.40;;;5.20;99.90;;;;;;5076356;28;20283;-61
2021/04/04 00:45:09;;;;;;;25.17;6.80;;;5.30;99.90;;;;;;5067427;28;20196;-62
2021/04/04 00:47:36;;;;;;;24.40;7.30;;;5.30;99.90;;;;;;5068822;28;21369;-62
2021/04/04 00:50:07;;;;;;;27.30;7.33;;;5.30;99.90;;;;;;5085679;28;20192;-62
2021/04/04 00:52:36;;;;;;;21.53;6.80;;;5.30;99.90;;;;;;5085811;28;20216;-61
2021/04/04 00:55:05;;;;;;;28.67;7.63;;;5.30;99.90;;;;;;5068933;28;20200;-62
2021/04/04 00:57:32;;;;;;;23.10;6.77;;;5.30;99.90;;;;;;5077304;28;20204;-62
2021/04/04 01:00:00;;;;;;;30.33;7.87;;;5.30;99.90;;;;;;5069610;28;20196;-61
2021/04/04 01:02:28;;;;;;;26.77;7.60;;;5.30;99.90;;;;;;5065284;28;20302;-63
2021/04/04 01:04:58;;;;;;;23.77;7.37;;;5.30;99.90;;;;;;5067757;28;20186;-62
2021/04/04 01:07:26;;;;;;;28.20;7.80;;;5.30;99.90;;;;;;5069493;28;20189;-62
2021/04/04 01:09:54;;;;;;;25.40;8.23;;;5.30;99.90;;;;;;5072137;28;20246;-62
2021/04/04 01:12:32;;;;;;;23.50;7.43;;;5.30;99.90;;;;;;5070609;28;20195;-61
2021/04/04 01:15:04;;;;;;;22.60;8.20;;;5.30;99.90;;;;;;5072774;28;20344;-62
2021/04/04 01:17:34;;;;;;;29.17;8.47;;;5.30;99.90;;;;;;5059881;28;20570;-62
2021/04/04 01:20:14;;;;;;;32.53;9.30;;;5.30;99.90;;;;;;5068236;28;20275;-62
2021/04/04 01:23:14;;;;;;;29.47;10.07;;;5.40;99.90;;;;;;5072816;28;20196;-62
2021/04/04 01:25:48;;;;;;;21.90;8.27;;;5.40;99.90;;;;;;5068163;28;20216;-62
2021/04/04 01:28:20;;;;;;;28.47;9.10;;;5.40;99.90;;;;;;5073925;28;20187;-62
2021/04/04 01:30:49;;;;;;;36.00;9.33;;;5.40;99.90;;;;;;5066266;28;20192;-62
2021/04/04 01:33:18;;;;;;;26.87;9.40;;;5.40;99.90;;;;;;5076278;28;20183;-62
2021/04/04 01:35:48;;;;;;;24.80;8.67;;;5.40;99.90;;;;;;5072103;28;20185;-62
2021/04/04 01:38:20;;;;;;;23.10;8.50;;;5.40;99.90;;;;;;5067366;28;20243;-62
2021/04/04 01:40:51;;;;;;;26.00;9.03;;;5.40;99.90;;;;;;5069087;28;20200;-62
2021/04/04 01:43:20;;;;;;;27.73;8.67;;;5.40;99.90;;;;;;5068105;28;20185;-62
2021/04/04 01:45:48;;;;;;;28.13;8.90;;;5.40;99.90;;;;;;5067915;28;20198;-62
2021/04/04 01:48:16;;;;;;;22.60;8.93;;;5.40;99.90;;;;;;5065405;28;20192;-62
2021/04/04 01:50:44;;;;;;;26.43;9.40;;;5.40;99.90;;;;;;5069571;28;20230;-62
2021/04/04 01:53:13;;;;;;;23.67;8.70;;;5.40;99.90;;;;;;5067633;28;20202;-62
2021/04/04 01:55:42;;;;;;;28.57;10.53;;;5.40;99.90;;;;;;5066297;28;20200;-62
2021/04/04 01:58:11;;;;;;;32.97;10.50;;;5.50;99.90;;;;;;5070347;28;20291;-62
2021/04/04 02:00:40;;;;;;;31.43;10.03;;;5.50;99.90;;;;;;5065802;28;20219;-62
2021/04/04 02:03:09;;;;;;;20.67;8.67;;;5.50;99.90;;;;;;5068635;28;20600;-62
2021/04/04 02:05:37;;;;;;;25.30;8.93;;;5.50;99.90;;;;;;5066326;28;20210;-62
2021/04/04 02:08:08;;;;;;;29.33;10.13;;;5.50;99.90;;;;;;5068036;28;20184;-62
2021/04/04 02:10:37;;;;;;;27.33;11.27;;;5.50;99.90;;;;;;5070158;28;20248;-62
2021/04/04 02:13:05;;;;;;;23.63;9.60;;;5.50;99.90;;;;;;5066231;28;20287;-62
2021/04/04 02:15:34;;;;;;;29.90;10.30;;;5.50;99.90;;;;;;5067589;28;20330;-62
2021/04/04 02:18:06;;;;;;;26.07;9.23;;;5.50;99.90;;;;;;5069097;28;20296;-62
2021/04/04 02:20:35;;;;;;;25.00;10.03;;;5.50;99.90;;;;;;5073155;28;20253;-62
2021/04/04 02:23:05;;;;;;;27.57;10.13;;;5.60;99.90;;;;;;5067749;28;20544;-62
2021/04/04 02:25:33;;;;;;;21.63;10.27;;;5.60;99.90;;;;;;5066229;28;20215;-62
2021/04/04 02:28:01;;;;;;;26.43;10.23;;;5.60;99.90;;;;;;5067927;28;20192;-62
2021/04/04 02:30:28;;;;;;;29.20;10.83;;;5.60;99.90;;;;;;5067212;28;20666;-62
2021/04/04 02:33:00;;;;;;;28.57;10.87;;;5.60;99.90;;;;;;5068299;28;20273;-62
2021/04/04 02:35:32;;;;;;;21.97;10.50;;;5.60;99.90;;;;;;5068639;28;20195;-62
2021/04/04 02:38:02;;;;;;;25.60;11.33;;;5.60;99.90;;;;;;5066736;28;20207;-62
2021/04/04 02:40:30;;;;;;;21.43;11.00;;;5.60;99.90;;;;;;5063775;28;20287;-62
2021/04/04 02:42:59;;;;;;;22.43;11.33;;;5.60;99.90;;;;;;5067544;28;20376;-62
2021/04/04 02:45:28;;;;;;;26.97;10.53;;;5.60;99.90;;;;;;5063980;28;20204;-62
2021/04/04 02:47:59;;;;;;;25.20;10.60;;;5.60;99.90;;;;;;5066115;28;20554;-62
2021/04/04 02:50:27;;;;;;;25.47;10.47;;;5.60;99.90;;;;;;5069903;28;20258;-62
2021/04/04 02:52:59;;;;;;;24.20;10.33;;;5.60;99.90;;;;;;5070045;28;20321;-62
2021/04/04 02:55:29;;;;;;;27.90;11.50;;;5.70;99.90;;;;;;5067582;28;20659;-62
2021/04/04 02:57:59;;;;;;;25.77;10.33;;;5.60;99.90;;;;;;5070376;28;20232;-62
2021/04/04 03:00:26;;;;;;;24.63;10.13;;;5.60;99.90;;;;;;5074869;28;20200;-62
2021/04/04 03:02:55;;;;;;;31.30;11.10;;;5.60;99.90;;;;;;5064772;28;20278;-62
2021/04/04 03:05:26;;;;;;;25.63;10.97;;;5.60;99.90;;;;;;5068081;28;20188;-62
2021/04/04 03:07:56;;;;;;;25.03;10.87;;;5.60;99.90;;;;;;5066605;28;20195;-62
2021/04/04 03:10:25;;;;;;;24.03;10.67;;;5.50;99.90;;;;;;5066244;28;20329;-61
2021/04/04 03:12:53;;;;;;;27.23;11.03;;;5.60;99.90;;;;;;5068671;28;20238;-62
2021/04/04 03:15:21;;;;;;;32.00;11.47;;;5.60;99.90;;;;;;5067632;28;20235;-62
2021/04/04 03:17:50;;;;;;;31.27;11.43;;;5.60;99.90;;;;;;5076554;28;20694;-62
2021/04/04 03:20:19;;;;;;;37.13;11.87;;;5.60;99.90;;;;;;5067865;28;20242;-62
2021/04/04 03:22:48;;;;;;;23.53;10.70;;;5.60;99.90;;;;;;5070661;28;20293;-62
2021/04/04 03:25:18;;;;;;;27.50;11.17;;;5.60;99.90;;;;;;5066470;28;20236;-62
2021/04/04 03:27:48;;;;;;;31.97;11.30;;;5.60;99.90;;;;;;5065831;28;20350;-62
2021/04/04 03:33:01;;;;;;;30.07;10.90;;;5.60;99.90;;;;;;5064182;28;20196;-63
2021/04/04 03:35:30;;;;;;;25.67;11.80;;;5.50;99.90;;;;;;5065870;28;20227;-63
2021/04/04 03:37:59;;;;;;;32.00;12.10;;;5.60;99.90;;;;;;5066417;28;20200;-63
2021/04/04 03:40:28;;;;;;;28.73;12.43;;;5.50;99.90;;;;;;5050310;28;20192;-63
2021/04/04 03:42:56;;;;;;;33.50;12.10;;;5.50;99.90;;;;;;5070385;28;20278;-63
2021/04/04 03:45:25;;;;;;;26.33;11.20;;;5.50;99.90;;;;;;5067020;28;20188;-63
2021/04/04 03:47:54;;;;;;;25.97;11.60;;;5.60;99.90;;;;;;5067932;28;20278;-63
2021/04/04 03:50:23;;;;;;;33.20;11.93;;;5.50;99.90;;;;;;5060445;28;20291;-63
2021/04/04 03:52:51;;;;;;;33.53;11.97;;;5.60;99.90;;;;;;5066626;28;20264;-63
2021/04/04 03:55:21;;;;;;;24.67;10.90;;;5.60;99.90;;;;;;5068047;28;20193;-63
2021/04/04 03:57:52;;;;;;;26.33;11.40;;;5.50;99.90;;;;;;5067393;28;20291;-63
2021/04/04 04:00:22;;;;;;;24.53;11.13;;;5.60;99.90;;;;;;5065412;28;20269;-63
2021/04/04 04:02:50;;;;;;;34.27;12.03;;;5.60;99.90;;;;;;5063719;28;20703;-63
2021/04/04 04:05:18;;;;;;;28.70;11.97;;;5.60;99.90;;;;;;5066869;28;20196;-63
2021/04/04 04:07:48;;;;;;;27.90;11.47;;;5.60;99.90;;;;;;5063942;28;20224;-62
2021/04/04 04:10:17;;;;;;;25.90;12.27;;;5.60;99.90;;;;;;5065843;28;20216;-63
2021/04/04 04:12:46;;;;;;;29.73;11.73;;;5.50;99.90;;;;;;5072184;28;20199;-63
2021/04/04 04:15:15;;;;;;;30.40;11.77;;;5.50;99.90;;;;;;5065994;28;20318;-63
2021/04/04 04:17:45;;;;;;;26.43;10.70;;;5.60;99.90;;;;;;5068167;28;20768;-62
2021/04/04 04:20:13;;;;;;;23.27;11.07;;;5.50;99.90;;;;;;5073851;28;20191;-63
2021/04/04 04:22:42;;;;;;;30.17;12.27;;;5.50;99.90;;;;;;5076972;28;20200;-63
2021/04/04 04:25:11;;;;;;;29.83;12.27;;;5.50;99.90;;;;;;5069370;28;20319;-62
2021/04/04 04:27:41;;;;;;;31.10;11.70;;;5.50;99.90;;;;;;5081525;28;20779;-62
2021/04/04 04:30:10;;;;;;;32.70;11.60;;;5.50;99.90;;;;;;5071239;28;20282;-63
2021/04/04 04:32:41;;;;;;;24.97;11.50;;;5.50;99.90;;;;;;5071294;28;20218;-63
2021/04/04 04:35:11;;;;;;;34.97;12.83;;;5.50;99.90;;;;;;5080488;28;20241;-63
2021/04/04 04:37:41;;;;;;;30.57;12.00;;;5.50;99.90;;;;;;5072973;28;20215;-63
2021/04/04 04:40:10;;;;;;;27.23;11.57;;;5.50;99.90;;;;;;5071299;28;20731;-63
2021/04/04 04:42:42;;;;;;;30.57;11.50;;;5.50;99.90;;;;;;5075751;28;20238;-63
2021/04/04 04:45:17;;;;;;;30.63;10.50;;;5.50;99.90;;;;;;5068460;28;20728;-62
2021/04/04 04:47:46;;;;;;;29.40;10.77;;;5.50;99.90;;;;;;5068701;28;20215;-63
2021/04/04 04:50:14;;;;;;;24.67;10.57;;;5.50;99.90;;;;;;5067012;28;20215;-61
2021/04/04 04:52:42;;;;;;;26.87;11.20;;;5.50;99.90;;;;;;5069246;28;20650;-63
2021/04/04 04:55:10;;;;;;;40.40;12.30;;;5.50;99.90;;;;;;5070918;28;20253;-63
2021/04/04 04:57:39;;;;;;;32.03;10.60;;;5.50;99.90;;;;;;5067811;28;20315;-62
2021/04/04 05:00:08;;;;;;;24.67;10.97;;;5.50;99.90;;;;;;5072040;28;20213;-63
2021/04/04 05:02:38;;;;;;;24.67;11.53;;;5.50;99.90;;;;;;5067046;28;20200;-62
2021/04/04 05:05:09;;;;;;;31.60;11.37;;;5.50;99.90;;;;;;5070457;28;20228;-63
2021/04/04 05:07:37;;;;;;;26.80;10.50;;;5.50;99.90;;;;;;5068084;28;20760;-63
2021/04/04 05:10:07;;;;;;;26.20;10.93;;;5.50;99.90;;;;;;5069921;28;20279;-63
2021/04/04 05:12:39;;;;;;;28.90;10.20;;;5.50;99.90;;;;;;5067144;28;20192;-62
2021/04/04 05:15:07;;;;;;;31.90;10.60;;;5.50;99.90;;;;;;5064989;28;20227;-63
2021/04/04 05:17:35;;;;;;;18.43;9.27;;;5.50;99.90;;;;;;5077120;28;20235;-63
2021/04/04 05:20:03;;;;;;;30.07;10.30;;;5.50;99.90;;;;;;5067530;28;20246;-63
2021/04/04 05:22:33;;;;;;;29.63;10.60;;;5.50;99.90;;;;;;5071809;28;20253;-62
2021/04/04 05:25:01;;;;;;;25.77;10.63;;;5.50;99.90;;;;;;5070784;28;20200;-63
2021/04/04 05:27:28;;;;;;;26.30;10.27;;;5.50;99.90;;;;;;5070445;28;20631;-63
2021/04/04 05:29:58;;;;;;;19.60;9.87;;;5.60;99.90;;;;;;5068872;28;20220;-63
2021/04/04 05:32:25;;;;;;;21.93;10.27;;;5.60;99.90;;;;;;5070026;28;20292;-63
2021/04/04 05:34:53;;;;;;;19.10;9.50;;;5.60;99.90;;;;;;5068892;28;20288;-63
2021/04/04 05:37:20;;;;;;;20.40;10.27;;;5.50;99.90;;;;;;5058963;28;20255;-62
2021/04/04 05:39:49;;;;;;;24.40;10.43;;;5.60;99.90;;;;;;5068082;28;20265;-63
2021/04/04 05:42:22;;;;;;;27.03;11.43;;;5.60;99.90;;;;;;5065575;28;20731;-63
2021/04/04 05:44:53;;;;;;;24.87;11.03;;;5.60;99.90;;;;;;5072724;28;20195;-63
2021/04/04 05:47:30;;;;;;;22.93;11.00;;;5.60;99.90;;;;;;5070278;28;20195;-63
2021/04/04 05:50:04;;;;;;;31.47;10.57;;;5.60;99.90;;;;;;5061899;28;20650;-63
2021/04/04 05:52:42;;;;;;;25.80;11.47;;;5.60;99.90;;;;;;5069178;28;20235;-63
2021/04/04 05:55:30;;;;;;;27.67;11.57;;;5.70;99.90;;;;;;5066800;28;20283;-63
2021/04/04 05:58:03;;;;;;;28.20;10.33;;;5.70;99.90;;;;;;5067264;28;20216;-63
2021/04/04 06:00:34;;;;;;;25.77;11.00;;;5.70;99.90;;;;;;5067972;28;20215;-62
2021/04/04 06:03:39;;;;;;;31.87;11.80;;;5.70;99.90;;;;;;5066319;28;20287;-61
2021/04/04 06:06:24;;;;;;;31.23;13.87;;;5.70;99.90;;;;;;5074909;28;20285;-63
2021/04/04 06:09:15;;;;;;;32.93;14.30;;;5.70;99.90;;;;;;5074462;28;20188;-63
2021/04/04 06:11:59;;;;;;;42.87;16.47;;;5.80;99.90;;;;;;5066335;28;20227;-63
2021/04/04 06:14:35;;;;;;;36.93;13.77;;;5.80;99.90;;;;;;5057798;28;20650;-63
2021/04/04 06:17:15;;;;;;;31.17;12.03;;;5.80;99.90;;;;;;5067084;28;20215;-63
2021/04/04 06:19:49;;;;;;;23.07;12.23;;;5.80;99.90;;;;;;5068311;28;20280;-63
2021/04/04 06:22:23;;;;;;;27.13;11.57;;;5.90;99.90;;;;;;5065050;28;20214;-63
2021/04/04 06:24:56;;;;;;;24.90;11.97;;;5.90;99.90;;;;;;5065415;28;20195;-63
2021/04/04 06:27:31;;;;;;;24.13;11.13;;;5.90;99.90;;;;;;5066930;28;20291;-63
2021/04/04 06:30:20;;;;;;;27.17;11.67;;;6.00;99.90;;;;;;5066764;28;20605;-63
2021/04/04 06:33:01;;;;;;;33.37;12.77;;;6.00;99.90;;;;;;5065976;28;20216;-63
2021/04/04 06:35:37;;;;;;;24.27;11.10;;;6.10;99.90;;;;;;5064926;28;20274;-63
2021/04/04 06:38:35;;;;;;;31.20;11.83;;;6.10;99.90;;;;;;5061766;28;20303;-63
2021/04/04 06:41:14;;;;;;;29.13;12.73;;;6.10;99.90;;;;;;5056689;28;20215;-63
2021/04/04 06:44:00;;;;;;;28.70;13.27;;;6.20;99.90;;;;;;5063272;28;20200;-62
2021/04/04 06:46:40;;;;;;;33.10;13.30;;;6.20;99.90;;;;;;5066473;28;20204;-63
2021/04/04 06:49:22;;;;;;;37.70;13.30;;;6.30;99.90;;;;;;5062572;28;20332;-63
2021/04/04 06:52:00;;;;;;;36.90;14.40;;;6.30;99.90;;;;;;5065586;28;20242;-63
2021/04/04 06:54:34;;;;;;;32.63;14.60;;;6.40;99.90;;;;;;5068940;28;20249;-63
2021/04/04 06:57:18;;;;;;;35.07;14.67;;;6.40;99.90;;;;;;5068495;28;20278;-63
2021/04/04 06:59:58;;;;;;;30.60;15.20;;;6.50;99.90;;;;;;5058778;28;20185;-63
2021/04/04 07:02:32;;;;;;;34.13;15.73;;;6.50;99.90;;;;;;5060666;28;20191;-63
2021/04/04 07:05:08;;;;;;;36.57;16.83;;;6.50;99.90;;;;;;5058493;28;20536;-62
2021/04/04 07:07:55;;;;;;;37.40;16.70;;;6.60;99.90;;;;;;5066466;28;20727;-62
2021/04/04 07:10:40;;;;;;;31.07;16.20;;;6.60;99.90;;;;;;5060479;28;20196;-62
2021/04/04 07:13:30;;;;;;;31.47;15.67;;;6.60;99.90;;;;;;5063748;28;20215;-62
2021/04/04 07:16:33;;;;;;;33.67;17.20;;;6.60;99.90;;;;;;5058697;28;20231;-62
2021/04/04 07:19:18;;;;;;;34.43;17.57;;;6.70;99.90;;;;;;5062843;28;20223;-62
2021/04/04 07:22:14;;;;;;;38.10;18.10;;;6.80;99.90;;;;;;5064085;28;20269;-62
2021/04/04 07:25:03;;;;;;;36.10;16.70;;;6.80;99.90;;;;;;5058066;28;20253;-62
2021/04/04 07:27:49;;;;;;;38.07;16.60;;;6.80;99.90;;;;;;5060817;28;20253;-63
2021/04/04 07:30:33;;;;;;;31.40;16.10;;;6.80;99.90;;;;;;5059078;28;20290;-62
2021/04/04 07:33:19;;;;;;;32.13;14.63;;;6.90;99.90;;;;;;5063112;28;20202;-62
2021/04/04 07:35:53;;;;;;;34.43;15.53;;;6.90;99.90;;;;;;5066561;28;20194;-62
2021/04/04 07:38:29;;;;;;;29.93;14.17;;;6.90;99.90;;;;;;5065492;28;20298;-62
2021/04/04 07:41:06;;;;;;;26.20;13.67;;;7.00;99.90;;;;;;5061281;28;20187;-62
2021/04/04 07:43:43;;;;;;;31.23;13.00;;;7.00;99.90;;;;;;5062023;28;20592;-62
2021/04/04 07:46:19;;;;;;;24.00;12.30;;;7.10;99.90;;;;;;5066509;28;21310;-62
2021/04/04 07:49:12;;;;;;;22.03;11.20;;;7.10;99.90;;;;;;5070466;28;20591;-62
2021/04/04 07:51:41;;;;;;;21.00;11.33;;;7.10;99.90;;;;;;5074022;28;20249;-62
2021/04/04 07:54:12;;;;;;;22.73;10.40;;;7.20;99.90;;;;;;5063009;28;20602;-62
2021/04/04 07:56:46;;;;;;;27.63;9.87;;;7.20;99.90;;;;;;5047476;28;20291;-62
2021/04/04 07:59:22;;;;;;;20.67;10.03;;;7.20;99.90;;;;;;5065124;28;20273;-63
2021/04/04 08:01:55;;;;;;;21.77;10.33;;;7.20;99.90;;;;;;5071095;28;20279;-63
2021/04/04 08:04:33;;;;;;;26.97;10.43;;;7.30;99.90;;;;;;5069254;28;20279;-61
2021/04/04 08:07:08;;;;;;;26.07;10.37;;;7.30;99.90;;;;;;5070848;28;20292;-61
2021/04/04 08:09:42;;;;;;;21.77;10.73;;;7.30;99.90;;;;;;5071203;28;20196;-61
2021/04/04 08:12:19;;;;;;;18.63;9.50;;;7.40;99.90;;;;;;5062335;28;20591;-61
2021/04/04 08:14:55;;;;;;;19.67;9.70;;;7.40;99.90;;;;;;5060981;28;20701;-62
2021/04/04 08:17:23;;;;;;;15.77;9.50;;;7.50;99.90;;;;;;5064513;28;20307;-61
2021/04/04 08:20:00;;;;;;;24.53;10.07;;;7.60;99.90;;;;;;5060096;28;20200;-61
2021/04/04 08:22:31;;;;;;;21.17;10.33;;;7.50;99.90;;;;;;5060439;28;20253;-60
2021/04/04 08:25:04;;;;;;;19.43;9.50;;;7.60;99.90;;;;;;5058088;28;20257;-61
2021/04/04 08:27:35;;;;;;;19.50;9.03;;;7.60;99.90;;;;;;5059565;28;20265;-61
2021/04/04 08:30:10;;;;;;;20.37;9.97;;;7.70;99.90;;;;;;5060978;28;20200;-61
2021/04/04 08:32:46;;;;;;;23.73;9.73;;;7.70;99.90;;;;;;5056340;28;20694;-61
2021/04/04 08:35:19;;;;;;;18.83;8.50;;;7.80;99.90;;;;;;5064113;28;20589;-62
2021/04/04 08:37:54;;;;;;;14.87;8.03;;;7.80;99.90;;;;;;5062370;28;20771;-61
2021/04/04 08:40:24;;;;;;;22.00;8.97;;;7.80;99.90;;;;;;5067284;28;20275;-61
2021/04/04 08:42:52;;;;;;;17.83;7.87;;;7.80;99.90;;;;;;5067129;28;20277;-62
2021/04/04 08:45:28;;;;;;;18.20;8.30;;;7.90;99.90;;;;;;5068454;28;20187;-62
2021/04/04 08:47:57;;;;;;;14.77;7.50;;;8.00;99.90;;;;;;5055935;28;21607;-61
2021/04/04 08:50:29;;;;;;;17.77;7.90;;;7.80;99.90;;;;;;5058665;28;20641;-61
2021/04/04 08:53:02;;;;;;;12.97;7.90;;;7.80;99.90;;;;;;5058010;28;20560;-61
2021/04/04 08:55:31;;;;;;;22.70;7.30;;;7.90;99.90;;;;;;5065821;28;20199;-61
2021/04/04 08:58:01;;;;;;;17.30;7.60;;;7.80;99.90;;;;;;5065444;28;20212;-61
2021/04/04 09:00:32;;;;;;;16.97;7.80;;;7.80;99.90;;;;;;5054673;28;20208;-61
2021/04/04 09:03:04;;;;;;;17.37;8.17;;;7.90;99.90;;;;;;5057426;28;20206;-61
2021/04/04 09:05:34;;;;;;;18.70;7.97;;;7.70;99.90;;;;;;5055750;28;20678;-61
2021/04/04 09:08:04;;;;;;;31.43;8.60;;;7.90;99.90;;;;;;5058422;28;20258;-61
2021/04/04 09:10:34;;;;;;;17.03;8.17;;;8.00;99.90;;;;;;5058836;28;20285;-61
2021/04/04 09:13:07;;;;;;;17.03;7.77;;;8.00;99.90;;;;;;5059199;28;20253;-61
2021/04/04 09:15:45;;;;;;;14.97;7.50;;;7.80;99.90;;;;;;5062255;28;20309;-61
2021/04/04 09:18:13;;;;;;;13.10;7.03;;;7.80;99.90;;;;;;5062011;28;20344;-61
2021/04/04 09:20:44;;;;;;;18.77;8.03;;;8.00;99.90;;;;;;5061179;28;20220;-61
2021/04/04 09:23:14;;;;;;;16.63;8.50;;;8.10;99.90;;;;;;5061897;28;20270;-61
2021/04/04 09:25:50;;;;;;;20.40;8.80;;;8.30;99.90;;;;;;5060546;28;20228;-62
2021/04/04 09:28:19;;;;;;;19.70;8.90;;;8.30;99.90;;;;;;5060547;28;20329;-62
2021/04/04 09:30:48;;;;;;;21.33;7.90;;;8.50;99.90;;;;;;5059860;28;20275;-62
2021/04/04 09:33:20;;;;;;;12.70;7.30;;;8.60;99.90;;;;;;5061727;28;20868;-61
2021/04/04 09:35:56;;;;;;;16.53;8.33;;;8.70;99.90;;;;;;5061445;28;20778;-61
2021/04/04 09:38:29;;;;;;;20.73;8.50;;;8.70;99.90;;;;;;5060649;28;20227;-61
2021/04/04 09:40:58;;;;;;;18.63;7.60;;;8.60;99.90;;;;;;5061235;28;20235;-59
2021/04/04 09:43:26;;;;;;;23.37;8.63;;;8.70;99.90;;;;;;5059516;28;20675;-61
2021/04/04 09:46:03;;;;;;;19.03;8.50;;;8.80;99.90;;;;;;5058359;28;20192;-61
2021/04/04 09:48:31;;;;;;;17.47;8.60;;;8.80;99.90;;;;;;5058217;28;20250;-62
2021/04/04 09:51:08;;;;;;;20.80;8.63;;;8.90;99.90;;;;;;5060111;28;20307;-61
2021/04/04 09:53:40;;;;;;;16.37;8.17;;;8.70;99.90;;;;;;5060457;28;20762;-61
2021/04/04 09:56:09;;;;;;;14.77;7.70;;;8.80;99.90;;;;;;5061513;28;20188;-61
2021/04/04 09:58:39;;;;;;;21.13;7.87;;;8.80;99.90;;;;;;5058246;28;21588;-61
2021/04/04 10:01:18;;;;;;;19.53;8.00;;;8.90;99.90;;;;;;5058363;28;20203;-62
2021/04/04 10:03:57;;;;;;;17.43;6.87;;;9.00;99.90;;;;;;5053732;28;20199;-61
2021/04/04 10:06:25;;;;;;;18.93;6.93;;;9.00;99.90;;;;;;5061012;28;20289;-62
2021/04/04 10:08:54;;;;;;;17.33;6.43;;;9.10;99.90;;;;;;5057865;28;20220;-61
2021/04/04 10:11:23;;;;;;;15.07;6.17;;;9.20;99.90;;;;;;5059222;28;20258;-62
2021/04/04 10:13:51;;;;;;;16.33;6.37;;;9.20;99.90;;;;;;5059943;28;20220;-62
2021/04/04 10:16:20;;;;;;;12.47;6.00;;;9.20;99.90;;;;;;5058159;28;20281;-62
2021/04/04 10:19:00;;;;;;;16.47;6.23;;;9.30;99.90;;;;;;5058243;28;20305;-61
2021/04/04 10:21:29;;;;;;;16.60;6.40;;;9.30;99.90;;;;;;5055444;28;20196;-62
2021/04/04 10:23:56;;;;;;;17.10;6.60;;;9.20;99.90;;;;;;5065131;28;20220;-62
2021/04/04 10:26:24;;;;;;;21.10;7.10;;;9.30;99.90;;;;;;5059513;28;20626;-61
2021/04/04 10:28:54;;;;;;;13.57;6.30;;;9.10;99.90;;;;;;5062035;28;20196;-61
2021/04/04 10:31:24;;;;;;;21.97;7.90;;;9.20;99.90;;;;;;5060353;28;20295;-61
2021/04/04 10:33:59;;;;;;;16.63;7.93;;;8.70;99.90;;;;;;5060147;28;20669;-61
2021/04/04 10:36:28;;;;;;;17.53;7.10;;;8.40;99.90;;;;;;5058893;28;20987;-61
2021/04/04 10:38:55;;;;;;;18.80;8.23;;;8.70;99.90;;;;;;5055406;28;20422;-61
2021/04/04 10:41:28;;;;;;;18.63;9.07;;;8.90;99.90;;;;;;5060216;28;20687;-62
2021/04/04 10:43:56;;;;;;;23.70;10.40;;;9.10;99.90;;;;;;5057829;28;20196;-62
2021/04/04 10:46:26;;;;;;;25.27;11.23;;;9.20;99.90;;;;;;5058188;28;20200;-61
2021/04/04 10:48:54;;;;;;;21.27;9.83;;;9.30;99.90;;;;;;5057390;28;20261;-62
2021/04/04 10:51:22;;;;;;;20.67;9.73;;;9.30;99.90;;;;;;5058077;28;20238;-62
2021/04/04 10:53:50;;;;;;;25.77;15.67;;;9.50;99.90;;;;;;5059050;28;20295;-61
2021/04/04 10:56:18;;;;;;;33.03;17.47;;;9.60;99.90;;;;;;5059690;28;20283;-62
2021/04/04 10:58:46;;;;;;;28.43;16.90;;;9.70;99.90;;;;;;5057532;28;20211;-61
2021/04/04 11:01:14;;;;;;;30.13;15.47;;;9.80;99.90;;;;;;5056883;28;20689;-62
2021/04/04 11:03:42;;;;;;;25.77;14.43;;;9.90;99.90;;;;;;5057474;28;20772;-62
2021/04/04 11:06:12;;;;;;;27.23;15.10;;;9.90;99.90;;;;;;5058462;28;20199;-62
2021/04/04 11:08:40;;;;;;;25.87;14.53;;;10.00;99.90;;;;;;5059175;28;20198;-61
2021/04/04 11:11:10;;;;;;;27.37;14.90;;;10.10;99.90;;;;;;5061401;28;20196;-62
2021/04/04 11:13:41;;;;;;;31.30;16.23;;;10.10;99.90;;;;;;5065943;28;20287;-62
2021/04/04 11:16:11;;;;;;;26.23;14.63;;;10.10;99.90;;;;;;5067128;28;20228;-63
2021/04/04 11:18:42;;;;;;;26.00;15.77;;;10.10;99.90;;;;;;5063536;28;20200;-62
2021/04/04 11:21:13;;;;;;;33.00;16.63;;;10.10;99.90;;;;;;5065219;28;20188;-62
2021/04/04 11:23:44;;;;;;;31.53;17.03;;;10.10;99.90;;;;;;5068138;28;20203;-62
2021/04/04 11:26:31;;;;;;;27.57;17.90;;;10.00;99.90;;;;;;5067099;28;20192;-61
2021/04/04 11:29:09;;;;;;;30.07;17.77;;;10.00;99.90;;;;;;5064043;28;20185;-62
2021/04/04 11:31:37;;;;;;;27.17;17.37;;;10.00;99.90;;;;;;5059052;28;20203;-62
2021/04/04 11:34:25;;;;;;;32.13;18.13;;;9.90;99.90;;;;;;5076253;28;20742;-61
2021/04/04 11:36:53;;;;;;;32.97;18.70;;;9.90;99.90;;;;;;5064790;28;20281;-61
2021/04/04 11:39:21;;;;;;;32.40;19.53;;;9.60;99.90;;;;;;5070282;28;20216;-62
2021/04/04 11:41:51;;;;;;;30.20;18.33;;;9.70;99.90;;;;;;5069621;28;20199;-61
2021/04/04 11:44:24;;;;;;;31.90;16.57;;;9.60;99.90;;;;;;5071104;28;20283;-62
2021/04/04 11:46:54;;;;;;;29.67;17.60;;;9.70;99.90;;;;;;5069764;28;20192;-61
2021/04/04 11:49:46;;;;;;;30.40;17.27;;;9.70;99.90;;;;;;5070936;28;20196;-62
2021/04/04 11:52:47;;;;;;;28.63;17.13;;;9.80;99.90;;;;;;5067753;28;20195;-61
2021/04/04 11:55:16;;;;;;;27.90;15.87;;;9.80;99.90;;;;;;5068440;28;20204;-61
2021/04/04 11:57:46;;;;;;;27.40;16.13;;;9.40;99.90;;;;;;5070148;28;20195;-61
2021/04/04 12:00:25;;;;;;;30.63;15.80;;;9.30;99.90;;;;;;5068075;28;20200;-61
2021/04/04 12:03:00;;;;;;;26.47;14.53;;;9.40;99.90;;;;;;5068336;28;20237;-62
2021/04/04 12:05:33;;;;;;;27.07;15.40;;;9.50;99.90;;;;;;5068078;28;20744;-62
2021/04/04 12:08:01;;;;;;;25.37;15.47;;;9.50;99.90;;;;;;5068451;28;20653;-62
2021/04/04 12:10:30;;;;;;;21.57;14.43;;;9.60;99.90;;;;;;5069667;28;20298;-61
2021/04/04 12:12:58;;;;;;;29.47;14.23;;;9.60;99.90;;;;;;5069791;28;20196;-62
2021/04/04 12:15:27;;;;;;;21.87;13.57;;;9.60;99.90;;;;;;5065297;28;20232;-61
2021/04/04 12:17:56;;;;;;;19.43;13.03;;;9.70;99.90;;;;;;5066588;28;20658;-61
2021/04/04 12:20:25;;;;;;;23.00;12.77;;;9.70;99.90;;;;;;5067653;28;20184;-61
2021/04/04 12:22:53;;;;;;;23.90;12.97;;;9.70;99.90;;;;;;5068048;28;20287;-62
2021/04/04 12:25:21;;;;;;;28.83;13.60;;;9.60;99.90;;;;;;5070562;28;20778;-61
2021/04/04 12:27:51;;;;;;;26.40;13.97;;;9.50;99.90;;;;;;5071762;28;20219;-61
2021/04/04 12:30:28;;;;;;;23.53;14.40;;;9.60;99.90;;;;;;5069491;28;20236;-61
2021/04/04 12:33:07;;;;;;;20.40;13.30;;;9.70;99.90;;;;;;5070700;28;20720;-62
2021/04/04 12:35:35;;;;;;;24.43;14.10;;;9.80;99.90;;;;;;5065849;28;20226;-62
2021/04/04 12:38:03;;;;;;;29.27;14.23;;;9.70;99.90;;;;;;5071163;28;20245;-61
2021/04/04 12:40:32;;;;;;;22.13;14.27;;;9.70;99.90;;;;;;5070617;28;20291;-61
2021/04/04 12:43:02;;;;;;;25.30;13.80;;;9.60;99.90;;;;;;5063896;28;20216;-61
2021/04/04 12:45:34;;;;;;;22.53;12.30;;;9.50;99.90;;;;;;5070865;28;20192;-62
2021/04/04 12:48:10;;;;;;;24.43;12.40;;;9.70;99.90;;;;;;5071205;28;20188;-62
2021/04/04 12:50:37;;;;;;;18.33;12.30;;;9.80;99.90;;;;;;5068071;28;20284;-61
2021/04/04 12:53:04;;;;;;;18.30;12.53;;;9.70;99.90;;;;;;5070759;28;20291;-62
2021/04/04 12:55:34;;;;;;;18.00;11.73;;;9.70;99.90;;;;;;5069876;28;20250;-62
2021/04/04 12:58:03;;;;;;;16.37;11.17;;;9.80;99.90;;;;;;5068562;28;20675;-62
2021/04/04 13:00:34;;;;;;;21.60;11.83;;;10.00;99.90;;;;;;5058278;28;20272;-61
2021/04/04 13:03:07;;;;;;;19.67;12.60;;;10.10;99.90;;;;;;5063459;28;20192;-61
2021/04/04 13:05:38;;;;;;;26.73;12.70;;;10.20;99.90;;;;;;5067321;28;20291;-61
2021/04/04 13:08:17;;;;;;;21.90;12.70;;;10.00;99.90;;;;;;5071948;28;20900;-61